createdAt,value
2017-03-27T00:00:02.916Z,0
2017-03-27T00:01:04.181Z,0
2017-03-27T00:02:05.417Z,0
2017-03-27T00:03:06.651Z,0
2017-03-27T00:04:07.881Z,0
2017-03-27T00:05:09.110Z,0
2017-03-27T00:06:10.408Z,0
2017-03-27T00:07:11.647Z,0
2017-03-27T00:08:12.927Z,0
2017-03-27T00:09:14.217Z,0
2017-03-27T00:10:15.474Z,0
2017-03-27T00:11:16.692Z,0
2017-03-27T00:12:17.935Z,0
2017-03-27T00:13:19.174Z,0
2017-03-27T00:14:20.603Z,0
2017-03-27T00:15:21.852Z,0
2017-03-27T00:16:23.079Z,0
2017-03-27T00:17:24.308Z,0
2017-03-27T00:18:25.567Z,0
2017-03-27T00:19:26.854Z,0
2017-03-27T00:20:28.178Z,0
2017-03-27T00:21:29.433Z,0
2017-03-27T00:22:30.720Z,0
2017-03-27T00:23:31.970Z,0
2017-03-27T00:24:33.254Z,0
2017-03-27T00:25:34.516Z,0
2017-03-27T00:26:35.744Z,0
2017-03-27T00:27:36.991Z,0
2017-03-27T00:28:38.228Z,0
2017-03-27T00:29:39.478Z,0
2017-03-27T00:30:40.735Z,0
2017-03-27T00:31:41.973Z,0
2017-03-27T00:32:43.248Z,0
2017-03-27T00:33:44.566Z,0
2017-03-27T00:34:45.823Z,0
2017-03-27T00:35:47.053Z,0
2017-03-27T00:36:48.317Z,0
2017-03-27T00:37:49.543Z,0
2017-03-27T00:38:50.784Z,0
2017-03-27T00:39:52.141Z,0
2017-03-27T00:40:53.370Z,0
2017-03-27T00:41:54.601Z,0
2017-03-27T00:42:55.863Z,0
2017-03-27T00:43:57.076Z,0
2017-03-27T00:44:58.328Z,0
2017-03-27T00:45:59.566Z,0
2017-03-27T00:47:00.816Z,0
2017-03-27T00:48:02.057Z,0
2017-03-27T00:49:03.293Z,0
2017-03-27T00:50:04.532Z,0
2017-03-27T00:51:05.771Z,0
2017-03-27T00:52:07.094Z,0
2017-03-27T00:53:08.329Z,0
2017-03-27T00:54:09.597Z,0
2017-03-27T00:55:10.859Z,0
2017-03-27T00:56:12.096Z,0
2017-03-27T00:57:13.339Z,0
2017-03-27T00:58:14.636Z,0
2017-03-27T00:59:15.907Z,0
2017-03-27T01:00:17.145Z,0
2017-03-27T01:01:18.383Z,0
2017-03-27T01:02:19.620Z,0
2017-03-27T01:03:20.851Z,0
2017-03-27T01:04:22.200Z,0
2017-03-27T01:05:23.452Z,0
2017-03-27T01:06:24.680Z,0
2017-03-27T01:07:25.911Z,0
2017-03-27T01:08:27.183Z,0
2017-03-27T01:09:28.471Z,0
2017-03-27T01:10:29.726Z,0
2017-03-27T01:11:31.001Z,0
2017-03-27T01:12:32.293Z,0
2017-03-27T01:13:33.501Z,0
2017-03-27T01:14:34.762Z,0
2017-03-27T01:15:35.976Z,0
2017-03-27T01:16:37.300Z,0
2017-03-27T01:17:38.557Z,0
2017-03-27T01:18:39.790Z,0
2017-03-27T01:19:41.041Z,0
2017-03-27T01:20:42.286Z,0
2017-03-27T01:21:43.520Z,0
2017-03-27T01:22:44.827Z,0
2017-03-27T01:23:46.074Z,0
2017-03-27T01:24:47.321Z,0
2017-03-27T01:25:48.693Z,0
2017-03-27T01:26:49.925Z,0
2017-03-27T01:27:51.172Z,0
2017-03-27T01:28:52.483Z,0
2017-03-27T01:29:53.801Z,0
2017-03-27T01:30:55.049Z,0
2017-03-27T01:31:56.398Z,0
2017-03-27T01:32:57.640Z,0
2017-03-27T01:33:58.916Z,0
2017-03-27T01:35:00.137Z,0
2017-03-27T01:36:01.364Z,0
2017-03-27T01:37:02.615Z,0
2017-03-27T01:38:03.842Z,0
2017-03-27T01:39:05.079Z,0
2017-03-27T01:40:06.316Z,0
2017-03-27T01:41:07.547Z,0
2017-03-27T01:42:08.804Z,0
2017-03-27T01:43:10.074Z,0
2017-03-27T01:44:11.338Z,0
2017-03-27T01:45:12.589Z,0
2017-03-27T01:46:13.825Z,0
2017-03-27T01:47:15.063Z,0
2017-03-27T01:48:16.316Z,0
2017-03-27T01:49:17.563Z,0
2017-03-27T01:50:18.869Z,0
2017-03-27T01:51:20.083Z,0
2017-03-27T01:52:21.326Z,0
2017-03-27T01:53:22.578Z,0
2017-03-27T01:54:23.812Z,0
2017-03-27T01:55:25.108Z,0
2017-03-27T01:56:26.344Z,0
2017-03-27T01:57:27.578Z,0
2017-03-27T01:58:28.835Z,0
2017-03-27T01:59:30.086Z,0
2017-03-27T02:00:31.382Z,0
2017-03-27T02:01:32.754Z,0
2017-03-27T02:02:34.065Z,0
2017-03-27T02:03:35.339Z,0
2017-03-27T02:04:36.650Z,0
2017-03-27T02:05:37.882Z,0
2017-03-27T02:06:39.119Z,0
2017-03-27T02:07:40.374Z,0
2017-03-27T02:08:41.591Z,0
2017-03-27T02:09:42.957Z,0
2017-03-27T02:10:44.167Z,0
2017-03-27T02:11:45.398Z,0
2017-03-27T02:12:46.651Z,0
2017-03-27T02:13:47.883Z,0
2017-03-27T02:14:49.301Z,0
2017-03-27T02:15:50.550Z,0
2017-03-27T02:16:51.790Z,0
2017-03-27T02:17:53.024Z,0
2017-03-27T02:18:54.286Z,0
2017-03-27T02:19:55.510Z,0
2017-03-27T02:20:56.806Z,0
2017-03-27T02:21:58.048Z,0
2017-03-27T02:22:59.285Z,0
2017-03-27T02:24:00.527Z,0
2017-03-27T02:25:01.767Z,0
2017-03-27T02:26:03.036Z,0
2017-03-27T02:27:04.296Z,0
2017-03-27T02:28:05.532Z,0
2017-03-27T02:29:06.788Z,0
2017-03-27T02:30:07.998Z,0
2017-03-27T02:31:09.250Z,0
2017-03-27T02:32:10.472Z,0
2017-03-27T02:33:11.732Z,0
2017-03-27T02:34:12.999Z,0
2017-03-27T02:35:14.238Z,0
2017-03-27T02:36:15.476Z,0
2017-03-27T02:37:16.714Z,0
2017-03-27T02:38:17.954Z,0
2017-03-27T02:39:19.338Z,0
2017-03-27T02:40:20.655Z,0
2017-03-27T02:41:21.896Z,0
2017-03-27T02:42:23.139Z,0
2017-03-27T02:43:24.372Z,0
2017-03-27T02:44:25.721Z,0
2017-03-27T02:45:26.966Z,0
2017-03-27T02:46:28.231Z,0
2017-03-27T02:47:29.466Z,0
2017-03-27T02:48:30.757Z,0
2017-03-27T02:49:31.988Z,0
2017-03-27T02:50:33.233Z,0
2017-03-27T02:51:34.471Z,0
2017-03-27T02:52:35.700Z,0
2017-03-27T02:53:37.117Z,0
2017-03-27T02:54:38.377Z,0
2017-03-27T02:55:39.572Z,0
2017-03-27T02:56:40.825Z,0
2017-03-27T02:57:42.039Z,0
2017-03-27T02:58:43.277Z,0
2017-03-27T02:59:44.567Z,0
2017-03-27T03:00:45.754Z,0
2017-03-27T03:01:46.986Z,0
2017-03-27T03:02:48.227Z,0
2017-03-27T03:03:49.471Z,0
2017-03-27T03:04:50.774Z,0
2017-03-27T03:05:52.164Z,0
2017-03-27T03:06:53.402Z,0
2017-03-27T03:07:54.648Z,0
2017-03-27T03:08:55.889Z,0
2017-03-27T03:09:57.146Z,0
2017-03-27T03:10:58.361Z,0
2017-03-27T03:11:59.600Z,0
2017-03-27T03:13:00.831Z,0
2017-03-27T03:14:02.066Z,0
2017-03-27T03:15:03.304Z,0
2017-03-27T03:16:04.533Z,0
2017-03-27T03:17:05.787Z,0
2017-03-27T03:18:07.051Z,0
2017-03-27T03:19:08.295Z,0
2017-03-27T03:20:09.527Z,0
2017-03-27T03:21:10.762Z,0
2017-03-27T03:22:11.999Z,0
2017-03-27T03:23:13.237Z,0
2017-03-27T03:24:14.469Z,0
2017-03-27T03:25:15.730Z,0
2017-03-27T03:26:16.943Z,0
2017-03-27T03:27:18.182Z,0
2017-03-27T03:28:19.427Z,0
2017-03-27T03:29:20.662Z,0
2017-03-27T03:30:21.894Z,0
2017-03-27T03:31:23.187Z,0
2017-03-27T03:32:24.536Z,0
2017-03-27T03:33:25.775Z,0
2017-03-27T03:34:27.018Z,0
2017-03-27T03:35:28.235Z,0
2017-03-27T03:36:29.486Z,0
2017-03-27T03:37:30.738Z,0
2017-03-27T03:38:31.963Z,0
2017-03-27T03:39:33.267Z,0
2017-03-27T03:40:34.492Z,0
2017-03-27T03:41:35.722Z,0
2017-03-27T03:42:36.964Z,0
2017-03-27T03:43:38.345Z,0
2017-03-27T03:44:39.514Z,0
2017-03-27T03:45:40.702Z,0
2017-03-27T03:46:41.962Z,0
2017-03-27T03:47:43.197Z,0
2017-03-27T03:48:44.479Z,0
2017-03-27T03:49:45.706Z,0
2017-03-27T03:50:46.950Z,0
2017-03-27T03:51:48.183Z,0
2017-03-27T03:52:49.412Z,0
2017-03-27T03:53:50.649Z,0
2017-03-27T03:54:51.883Z,0
2017-03-27T03:55:53.182Z,0
2017-03-27T03:56:54.482Z,0
2017-03-27T03:57:55.682Z,0
2017-03-27T03:58:56.938Z,0
2017-03-27T03:59:58.177Z,0
2017-03-27T04:00:59.458Z,0
2017-03-27T04:02:00.695Z,0
2017-03-27T04:03:01.939Z,0
2017-03-27T04:04:03.220Z,0
2017-03-27T04:05:04.461Z,0
2017-03-27T04:06:05.695Z,0
2017-03-27T04:07:06.966Z,0
2017-03-27T04:08:08.199Z,0
2017-03-27T04:09:09.440Z,0
2017-03-27T04:10:10.723Z,0
2017-03-27T04:11:11.973Z,0
2017-03-27T04:12:13.197Z,0
2017-03-27T04:13:14.455Z,0
2017-03-27T04:14:15.661Z,0
2017-03-27T04:15:16.897Z,0
2017-03-27T04:16:18.150Z,0
2017-03-27T04:17:19.547Z,0
2017-03-27T04:18:20.881Z,0
2017-03-27T04:19:22.106Z,0
2017-03-27T04:20:23.345Z,0
2017-03-27T04:21:24.577Z,0
2017-03-27T04:22:25.832Z,0
2017-03-27T04:23:27.098Z,0
2017-03-27T04:24:28.399Z,0
2017-03-27T04:25:29.635Z,0
2017-03-27T04:26:30.876Z,0
2017-03-27T04:27:32.116Z,0
2017-03-27T04:28:33.353Z,0
2017-03-27T04:29:34.633Z,0
2017-03-27T04:30:35.960Z,0
2017-03-27T04:31:37.099Z,0
2017-03-27T04:32:38.494Z,0
2017-03-27T04:33:39.728Z,0
2017-03-27T04:34:40.963Z,0
2017-03-27T04:35:42.220Z,0
2017-03-27T04:36:43.458Z,0
2017-03-27T04:37:44.697Z,0
2017-03-27T04:38:45.925Z,0
2017-03-27T04:39:47.175Z,0
2017-03-27T04:40:48.387Z,4
2017-03-27T04:41:49.685Z,0
2017-03-27T04:42:51.076Z,4
2017-03-27T04:43:52.349Z,4
2017-03-27T04:44:53.573Z,4
2017-03-27T04:45:54.800Z,4
2017-03-27T04:46:56.043Z,8
2017-03-27T04:47:57.311Z,8
2017-03-27T04:48:58.627Z,4
2017-03-27T04:49:59.903Z,8
2017-03-27T04:51:01.195Z,8
2017-03-27T04:52:02.450Z,12
2017-03-27T04:53:03.730Z,16
2017-03-27T04:54:04.976Z,20
2017-03-27T04:55:06.213Z,20
2017-03-27T04:56:07.531Z,24
2017-03-27T04:57:08.793Z,32
2017-03-27T04:58:10.018Z,36
2017-03-27T04:59:11.253Z,40
2017-03-27T05:00:12.492Z,48
2017-03-27T05:01:13.741Z,60
2017-03-27T05:02:14.980Z,64
2017-03-27T05:03:16.287Z,76
2017-03-27T05:04:17.529Z,88
2017-03-27T05:05:18.759Z,100
2017-03-27T05:06:20.004Z,116
2017-03-27T05:07:21.255Z,128
2017-03-27T05:08:22.544Z,144
2017-03-27T05:09:23.789Z,160
2017-03-27T05:10:25.108Z,180
2017-03-27T05:11:26.360Z,204
2017-03-27T05:12:27.747Z,224
2017-03-27T05:13:28.981Z,248
2017-03-27T05:14:30.218Z,272
2017-03-27T05:15:31.446Z,296
2017-03-27T05:16:32.816Z,324
2017-03-27T05:17:34.081Z,356
2017-03-27T05:18:35.288Z,388
2017-03-27T05:19:36.554Z,420
2017-03-27T05:20:37.782Z,452
2017-03-27T05:21:39.041Z,488
2017-03-27T05:22:40.300Z,528
2017-03-27T05:23:41.536Z,564
2017-03-27T05:24:42.810Z,604
2017-03-27T05:25:44.053Z,648
2017-03-27T05:26:45.322Z,692
2017-03-27T05:27:46.561Z,736
2017-03-27T05:28:47.788Z,780
2017-03-27T05:29:49.012Z,824
2017-03-27T05:30:50.247Z,872
2017-03-27T05:31:51.537Z,920
2017-03-27T05:32:52.765Z,964
2017-03-27T05:33:54.074Z,1012
2017-03-27T05:34:55.282Z,1064
2017-03-27T05:35:56.593Z,1112
2017-03-27T05:36:57.823Z,1160
2017-03-27T05:37:59.053Z,1208
2017-03-27T05:39:00.312Z,1260
2017-03-27T05:40:01.528Z,1308
2017-03-27T05:41:02.783Z,1360
2017-03-27T05:42:03.998Z,1408
2017-03-27T05:43:05.257Z,1460
2017-03-27T05:44:06.496Z,1512
2017-03-27T05:45:07.743Z,1572
2017-03-27T05:46:08.972Z,1644
2017-03-27T05:47:10.226Z,1704
2017-03-27T05:48:11.462Z,1780
2017-03-27T05:49:12.701Z,1860
2017-03-27T05:50:13.962Z,1932
2017-03-27T05:51:15.175Z,1996
2017-03-27T05:52:16.450Z,2072
2017-03-27T05:53:17.676Z,2144
2017-03-27T05:54:18.918Z,2228
2017-03-27T05:55:20.150Z,2320
2017-03-27T05:56:21.384Z,2448
2017-03-27T05:57:22.624Z,2612
2017-03-27T05:58:23.858Z,2844
2017-03-27T05:59:25.097Z,3196
2017-03-27T06:00:26.472Z,3804
2017-03-27T06:01:27.685Z,4576
2017-03-27T06:02:28.929Z,5176
2017-03-27T06:03:30.178Z,5432
2017-03-27T06:04:31.413Z,5588
2017-03-27T06:05:32.648Z,5748
2017-03-27T06:06:33.893Z,5892
2017-03-27T06:07:35.173Z,6048
2017-03-27T06:08:36.427Z,6176
2017-03-27T06:09:37.702Z,6296
2017-03-27T06:10:38.966Z,6408
2017-03-27T06:11:40.224Z,6524
2017-03-27T06:12:41.475Z,6652
2017-03-27T06:13:42.790Z,6716
2017-03-27T06:14:44.042Z,6816
2017-03-27T06:15:45.258Z,6984
2017-03-27T06:16:46.488Z,7084
2017-03-27T06:17:47.728Z,7240
2017-03-27T06:18:48.969Z,7404
2017-03-27T06:19:50.214Z,7516
2017-03-27T06:20:51.452Z,7580
2017-03-27T06:21:52.783Z,7592
2017-03-27T06:22:54.027Z,7436
2017-03-27T06:23:55.291Z,7192
2017-03-27T06:24:56.622Z,7176
2017-03-27T06:25:57.857Z,7240
2017-03-27T06:26:59.099Z,7376
2017-03-27T06:28:00.509Z,7608
2017-03-27T06:29:01.769Z,7968
2017-03-27T06:30:03.021Z,8316
2017-03-27T06:31:04.288Z,8608
2017-03-27T06:32:05.523Z,8808
2017-03-27T06:33:06.762Z,9088
2017-03-27T06:34:08.001Z,9448
2017-03-27T06:35:09.224Z,9744
2017-03-27T06:36:10.468Z,9980
2017-03-27T06:37:11.760Z,10156
2017-03-27T06:38:12.999Z,10348
2017-03-27T06:39:14.250Z,10528
2017-03-27T06:40:15.487Z,10712
2017-03-27T06:41:16.740Z,11120
2017-03-27T06:42:17.980Z,11288
2017-03-27T06:43:19.233Z,11356
2017-03-27T06:44:20.490Z,11752
2017-03-27T06:45:21.733Z,12012
2017-03-27T06:46:23.009Z,12060
2017-03-27T06:47:24.272Z,12216
2017-03-27T06:48:25.515Z,12348
2017-03-27T06:49:26.789Z,12532
2017-03-27T06:50:28.025Z,12800
2017-03-27T06:51:29.359Z,13068
2017-03-27T06:52:30.569Z,13240
2017-03-27T06:53:31.823Z,13412
2017-03-27T06:54:33.055Z,13632
2017-03-27T07:00:01.462Z,15712
2017-03-27T07:01:02.672Z,16672
2017-03-27T07:02:03.914Z,17120
2017-03-27T07:03:05.161Z,17408
2017-03-27T07:04:06.411Z,17568
2017-03-27T07:05:07.779Z,17472
2017-03-27T07:06:09.281Z,17856
2017-03-27T07:07:10.570Z,18976
2017-03-27T07:08:11.820Z,20256
2017-03-27T07:09:13.120Z,21056
2017-03-27T07:10:14.351Z,21632
2017-03-27T07:11:15.701Z,21952
2017-03-27T07:12:17.026Z,22208
2017-03-27T07:13:18.274Z,22528
2017-03-27T07:14:19.530Z,23104
2017-03-27T07:15:20.856Z,23232
2017-03-27T07:16:22.042Z,22976
2017-03-27T07:17:23.382Z,23200
2017-03-27T07:18:24.635Z,24064
2017-03-27T07:19:25.888Z,24512
2017-03-27T07:20:27.145Z,24512
2017-03-27T07:21:28.419Z,24768
2017-03-27T07:22:29.665Z,25088
2017-03-27T07:23:30.940Z,25600
2017-03-27T07:24:32.199Z,25984
2017-03-27T07:25:33.441Z,26080
2017-03-27T07:26:34.711Z,25056
2017-03-27T07:27:35.961Z,24704
2017-03-27T07:28:37.230Z,24832
2017-03-27T07:29:38.531Z,24352
2017-03-27T07:30:39.780Z,24416
2017-03-27T07:31:41.068Z,24448
2017-03-27T07:32:42.320Z,24448
2017-03-27T07:33:43.601Z,24576
2017-03-27T07:34:44.820Z,24544
2017-03-27T07:35:46.079Z,25056
2017-03-27T07:36:47.334Z,25440
2017-03-27T07:37:48.635Z,26080
2017-03-27T07:38:49.892Z,26240
2017-03-27T07:39:51.138Z,26240
2017-03-27T07:40:52.381Z,26464
2017-03-27T07:41:53.641Z,27072
2017-03-27T07:42:54.888Z,27200
2017-03-27T07:43:56.262Z,27392
2017-03-27T07:44:57.510Z,28128
2017-03-27T07:45:58.833Z,28608
2017-03-27T07:47:00.074Z,27776
2017-03-27T07:48:01.362Z,23904
2017-03-27T07:49:02.624Z,29152
2017-03-27T07:50:03.876Z,28544
2017-03-27T07:51:05.143Z,30528
2017-03-27T07:52:06.407Z,30752
2017-03-27T07:53:07.688Z,29664
2017-03-27T07:54:09.019Z,29760
2017-03-27T07:55:10.274Z,31392
2017-03-27T07:56:11.546Z,30912
2017-03-27T07:57:12.849Z,28928
2017-03-27T07:58:14.156Z,27328
2017-03-27T07:59:15.374Z,25760
2017-03-27T08:00:16.631Z,24320
2017-03-27T08:01:17.898Z,23264
2017-03-27T08:02:19.144Z,22944
2017-03-27T08:03:20.424Z,22816
2017-03-27T08:04:21.682Z,21760
2017-03-27T08:05:22.979Z,20640
2017-03-27T08:06:24.258Z,20768
2017-03-27T08:07:25.750Z,20736
2017-03-27T08:08:27.203Z,20512
2017-03-27T08:09:28.479Z,20384
2017-03-27T08:10:29.804Z,20128
2017-03-27T08:11:31.055Z,19840
2017-03-27T08:12:32.425Z,19872
2017-03-27T08:13:33.686Z,20128
2017-03-27T08:14:34.945Z,19776
2017-03-27T08:15:36.208Z,19808
2017-03-27T08:16:37.464Z,19744
2017-03-27T08:17:38.716Z,19488
2017-03-27T08:18:39.959Z,19392
2017-03-27T08:19:41.263Z,19360
2017-03-27T08:20:42.519Z,19584
2017-03-27T08:21:43.905Z,19808
2017-03-27T08:22:45.222Z,19904
2017-03-27T08:23:46.569Z,19840
2017-03-27T08:24:47.816Z,19712
2017-03-27T08:25:49.065Z,19680
2017-03-27T08:26:50.344Z,19808
2017-03-27T08:27:51.587Z,19936
2017-03-27T08:28:52.931Z,20128
2017-03-27T08:29:54.183Z,20192
2017-03-27T08:30:55.443Z,20352
2017-03-27T08:31:56.746Z,20640
2017-03-27T08:32:58.002Z,20768
2017-03-27T08:33:59.277Z,20896
2017-03-27T08:35:00.526Z,20960
2017-03-27T08:36:01.835Z,21248
2017-03-27T08:37:03.296Z,21600
2017-03-27T08:38:04.547Z,22400
2017-03-27T08:39:05.929Z,22912
2017-03-27T08:40:07.326Z,23168
2017-03-27T08:41:08.583Z,23584
2017-03-27T08:42:09.849Z,23808
2017-03-27T08:43:11.112Z,24256
2017-03-27T08:44:12.372Z,24640
2017-03-27T08:45:13.625Z,25088
2017-03-27T08:46:15.001Z,25152
2017-03-27T08:47:16.387Z,25216
2017-03-27T08:48:17.638Z,25280
2017-03-27T08:49:18.920Z,25792
2017-03-27T08:50:20.178Z,24480
2017-03-27T08:51:21.456Z,24800
2017-03-27T08:52:22.723Z,25248
2017-03-27T08:53:24.005Z,25632
2017-03-27T08:54:25.231Z,25664
2017-03-27T08:55:26.477Z,25792
2017-03-27T08:56:27.734Z,25888
2017-03-27T08:57:29.089Z,25504
2017-03-27T08:58:30.361Z,25344
2017-03-27T08:59:31.677Z,24896
2017-03-27T09:00:32.910Z,24384
2017-03-27T09:01:34.181Z,24640
2017-03-27T09:02:35.417Z,25280
2017-03-27T09:03:36.676Z,25504
2017-03-27T09:04:37.924Z,25824
2017-03-27T09:05:39.243Z,25824
2017-03-27T09:06:40.514Z,25760
2017-03-27T09:07:41.771Z,25568
2017-03-27T09:08:43.028Z,25376
2017-03-27T09:09:44.354Z,25888
2017-03-27T09:10:45.713Z,26848
2017-03-27T09:11:46.968Z,27008
2017-03-27T09:12:48.248Z,26944
2017-03-27T09:13:49.488Z,27072
2017-03-27T09:14:50.748Z,28032
2017-03-27T09:15:51.990Z,29024
2017-03-27T09:16:53.264Z,28480
2017-03-27T09:17:54.512Z,27200
2017-03-27T09:18:55.787Z,27296
2017-03-27T09:19:57.029Z,27232
2017-03-27T09:20:58.285Z,26784
2017-03-27T09:21:59.661Z,27136
2017-03-27T09:23:01.056Z,27584
2017-03-27T09:24:02.301Z,28896
2017-03-27T09:25:03.550Z,29312
2017-03-27T09:26:04.943Z,29952
2017-03-27T09:27:06.092Z,30432
2017-03-27T09:28:07.466Z,30208
2017-03-27T09:29:08.723Z,31040
2017-03-27T09:30:09.980Z,30976
2017-03-27T09:31:11.239Z,30304
2017-03-27T09:32:12.502Z,30752
2017-03-27T09:33:13.808Z,31712
2017-03-27T09:34:15.078Z,32224
2017-03-27T09:35:16.339Z,31936
2017-03-27T09:36:17.598Z,32000
2017-03-27T09:37:18.911Z,33600
2017-03-27T09:38:20.173Z,33952
2017-03-27T09:39:21.471Z,34048
2017-03-27T09:40:22.722Z,35136
2017-03-27T09:41:23.979Z,36416
2017-03-27T09:42:25.230Z,38784
2017-03-27T09:43:26.509Z,40480
2017-03-27T09:44:27.898Z,40704
2017-03-27T09:45:29.169Z,43232
2017-03-27T09:46:30.494Z,46400
2017-03-27T09:47:31.749Z,50592
2017-03-27T09:48:33.032Z,55264
2017-03-27T09:49:34.293Z,55168
2017-03-27T09:50:35.543Z,57792
2017-03-27T09:51:37.012Z,60512
2017-03-27T09:52:38.335Z,55456
2017-03-27T09:53:39.560Z,59072
2017-03-27T09:54:40.817Z,66944
2017-03-27T09:55:42.138Z,62272
2017-03-27T09:56:43.341Z,62336
2017-03-27T09:57:44.634Z,69696
2017-03-27T09:58:45.870Z,68384
2017-03-27T09:59:47.133Z,64096
2017-03-27T10:00:48.403Z,64864
2017-03-27T10:01:49.657Z,68736
2017-03-27T10:02:51.024Z,68800
2017-03-27T10:03:52.335Z,69920
2017-03-27T10:04:53.601Z,68800
2017-03-27T10:05:54.878Z,67360
2017-03-27T10:06:56.122Z,67712
2017-03-27T10:07:57.379Z,67936
2017-03-27T10:08:58.635Z,67776
2017-03-27T10:09:59.918Z,69312
2017-03-27T10:11:01.189Z,74688
2017-03-27T10:12:02.456Z,78176
2017-03-27T10:13:03.707Z,77472
2017-03-27T10:14:04.966Z,80704
2017-03-27T10:15:06.229Z,84288
2017-03-27T10:16:07.505Z,82848
2017-03-27T10:17:08.871Z,82432
2017-03-27T10:18:10.122Z,84992
2017-03-27T10:19:11.381Z,84832
2017-03-27T10:20:12.821Z,82656
2017-03-27T10:21:13.991Z,79584
2017-03-27T10:22:15.312Z,78560
2017-03-27T10:23:16.545Z,79008
2017-03-27T10:24:17.800Z,81600
2017-03-27T10:25:19.043Z,81920
2017-03-27T10:26:20.292Z,75424
2017-03-27T10:27:21.575Z,60800
2017-03-27T10:28:22.840Z,59392
2017-03-27T10:29:24.119Z,62272
2017-03-27T10:30:25.374Z,63520
2017-03-27T10:31:26.616Z,62016
2017-03-27T10:32:27.977Z,58176
2017-03-27T10:33:29.305Z,53792
2017-03-27T10:34:30.665Z,55648
2017-03-27T10:35:31.904Z,57024
2017-03-27T10:36:33.153Z,56640
2017-03-27T10:37:34.403Z,56256
2017-03-27T10:38:35.656Z,52608
2017-03-27T10:39:36.926Z,55616
2017-03-27T10:40:38.172Z,58624
2017-03-27T10:41:39.456Z,56608
2017-03-27T10:42:40.717Z,56608
2017-03-27T10:43:41.964Z,57408
2017-03-27T10:44:43.207Z,53664
2017-03-27T10:45:44.584Z,51520
2017-03-27T10:46:45.793Z,30048
2017-03-27T10:47:47.042Z,5328
2017-03-27T10:48:48.296Z,4416
2017-03-27T10:49:49.552Z,4204
2017-03-27T10:50:50.915Z,4156
2017-03-27T10:51:52.158Z,4124
2017-03-27T10:52:53.629Z,4084
2017-03-27T10:53:54.878Z,4036
2017-03-27T10:54:56.110Z,4000
2017-03-27T10:55:57.374Z,3976
2017-03-27T10:56:58.752Z,3964
2017-03-27T10:58:00.001Z,3952
2017-03-27T10:59:01.261Z,3920
2017-03-27T11:00:02.546Z,3892
2017-03-27T11:01:03.818Z,3864
2017-03-27T11:02:05.096Z,3836
2017-03-27T11:03:06.510Z,3808
2017-03-27T11:04:07.744Z,3784
2017-03-27T11:05:09.003Z,3772
2017-03-27T11:06:10.248Z,3756
2017-03-27T11:07:11.496Z,3736
2017-03-27T11:08:12.766Z,3720
2017-03-27T11:09:13.975Z,3708
2017-03-27T11:10:15.424Z,3688
2017-03-27T11:11:16.702Z,3664
2017-03-27T11:12:17.936Z,3660
2017-03-27T11:13:19.174Z,3684
2017-03-27T11:14:20.424Z,3712
2017-03-27T11:15:21.674Z,3712
2017-03-27T11:16:22.949Z,3708
2017-03-27T11:17:24.190Z,3696
2017-03-27T11:18:25.427Z,3688
2017-03-27T11:19:26.677Z,3672
2017-03-27T11:20:27.953Z,3644
2017-03-27T11:21:29.214Z,3616
2017-03-27T11:22:30.476Z,3588
2017-03-27T11:23:31.719Z,3564
2017-03-27T11:24:33.031Z,3556
2017-03-27T11:25:34.254Z,3556
2017-03-27T11:26:35.517Z,3556
2017-03-27T11:27:36.754Z,3552
2017-03-27T11:28:37.987Z,3544
2017-03-27T11:29:39.240Z,3532
2017-03-27T11:30:40.547Z,3520
2017-03-27T11:31:41.813Z,3508
2017-03-27T11:32:43.057Z,3492
2017-03-27T11:33:44.294Z,3472
2017-03-27T11:34:45.565Z,3452
2017-03-27T11:35:46.845Z,3436
2017-03-27T11:36:48.054Z,3416
2017-03-27T11:37:49.320Z,3400
2017-03-27T11:38:50.568Z,3392
2017-03-27T11:39:51.822Z,3396
2017-03-27T11:40:53.090Z,3392
2017-03-27T11:41:54.340Z,3384
2017-03-27T11:42:55.589Z,3376
2017-03-27T11:43:56.829Z,3356
2017-03-27T11:44:58.087Z,3340
2017-03-27T11:45:59.333Z,3336
2017-03-27T11:47:00.635Z,3320
2017-03-27T11:48:01.881Z,3292
2017-03-27T11:49:03.172Z,3264
2017-03-27T11:50:04.411Z,3240
2017-03-27T11:51:05.656Z,3224
2017-03-27T11:52:06.958Z,3216
2017-03-27T11:53:08.193Z,3208
2017-03-27T11:54:09.484Z,3196
2017-03-27T11:55:10.738Z,3188
2017-03-27T11:56:11.997Z,3180
2017-03-27T11:57:13.225Z,3172
2017-03-27T11:58:14.469Z,3160
2017-03-27T11:59:15.765Z,3152
2017-03-27T12:00:17.038Z,3140
2017-03-27T12:01:18.314Z,3136
2017-03-27T12:02:19.584Z,3132
2017-03-27T12:03:20.906Z,3124
2017-03-27T12:04:22.165Z,3124
2017-03-27T12:05:23.440Z,3120
2017-03-27T12:06:24.704Z,3124
2017-03-27T12:07:25.938Z,3116
2017-03-27T12:08:27.200Z,3108
2017-03-27T12:09:28.454Z,3104
2017-03-27T12:10:29.733Z,3100
2017-03-27T12:11:30.964Z,3096
2017-03-27T12:12:32.590Z,3092
2017-03-27T12:13:33.735Z,3088
2017-03-27T12:14:34.999Z,3088
2017-03-27T12:15:36.241Z,3092
2017-03-27T12:16:37.500Z,3080
2017-03-27T12:17:38.754Z,3076
2017-03-27T12:18:39.978Z,3068
2017-03-27T12:19:41.325Z,3060
2017-03-27T12:20:42.556Z,3052
2017-03-27T12:21:43.800Z,3044
2017-03-27T12:22:45.117Z,3040
2017-03-27T12:23:46.290Z,3036
2017-03-27T12:24:47.561Z,3032
2017-03-27T12:25:48.808Z,3028
2017-03-27T12:26:50.048Z,3020
2017-03-27T12:27:51.333Z,3016
2017-03-27T12:28:52.570Z,3012
2017-03-27T12:29:53.799Z,3012
2017-03-27T12:30:55.077Z,3008
2017-03-27T12:31:56.320Z,3008
2017-03-27T12:32:57.561Z,3008
2017-03-27T12:33:58.825Z,3004
2017-03-27T12:35:00.063Z,3000
2017-03-27T12:36:01.305Z,3000
2017-03-27T12:37:02.561Z,2992
2017-03-27T12:38:03.818Z,2988
2017-03-27T12:39:05.108Z,2988
2017-03-27T12:40:06.354Z,2984
2017-03-27T12:41:07.596Z,2980
2017-03-27T12:42:08.846Z,2980
2017-03-27T12:43:10.093Z,2976
2017-03-27T12:44:11.488Z,2972
2017-03-27T12:45:12.804Z,2972
2017-03-27T12:46:14.057Z,2972
2017-03-27T12:47:15.304Z,2964
2017-03-27T12:48:16.542Z,2968
2017-03-27T12:49:17.840Z,2960
2017-03-27T12:50:19.128Z,2952
2017-03-27T12:51:20.483Z,2948
2017-03-27T12:52:21.709Z,2948
2017-03-27T12:53:22.964Z,2940
2017-03-27T12:54:24.253Z,2936
2017-03-27T12:55:25.674Z,2928
2017-03-27T12:56:27.036Z,2928
2017-03-27T12:57:28.288Z,2920
2017-03-27T12:58:29.572Z,2920
2017-03-27T12:59:30.793Z,2912
2017-03-27T13:00:32.040Z,2908
2017-03-27T13:01:33.399Z,2900
2017-03-27T13:02:34.659Z,2896
2017-03-27T13:03:35.920Z,2896
2017-03-27T13:04:37.144Z,2892
2017-03-27T13:05:38.419Z,2892
2017-03-27T13:06:39.661Z,2888
2017-03-27T13:07:40.912Z,2888
2017-03-27T13:08:42.200Z,2888
2017-03-27T13:09:43.474Z,2884
2017-03-27T13:10:44.721Z,2880
2017-03-27T13:11:46.012Z,2876
2017-03-27T13:12:47.397Z,2872
2017-03-27T13:13:48.688Z,2868
2017-03-27T13:14:49.981Z,2868
2017-03-27T13:15:51.208Z,2868
2017-03-27T13:16:52.458Z,2864
2017-03-27T13:17:53.736Z,2868
2017-03-27T13:18:55.021Z,2864
2017-03-27T13:19:56.281Z,2860
2017-03-27T13:20:57.711Z,2856
2017-03-27T13:21:58.975Z,2852
2017-03-27T13:23:00.232Z,2852
2017-03-27T13:24:01.481Z,2852
2017-03-27T13:25:02.810Z,2852
2017-03-27T13:26:04.067Z,2856
2017-03-27T13:27:05.315Z,2852
2017-03-27T13:28:06.556Z,2844
2017-03-27T13:29:07.788Z,2844
2017-03-27T13:30:09.056Z,2848
2017-03-27T13:31:10.324Z,2848
2017-03-27T13:32:11.802Z,2848
2017-03-27T13:33:13.103Z,2848
2017-03-27T13:34:14.594Z,2844
2017-03-27T13:35:15.950Z,2844
2017-03-27T13:36:17.210Z,2840
2017-03-27T13:37:18.448Z,2840
2017-03-27T13:38:19.741Z,2832
2017-03-27T13:39:20.990Z,2824
2017-03-27T13:40:22.243Z,2820
2017-03-27T13:41:23.487Z,2808
2017-03-27T13:42:24.808Z,2796
2017-03-27T13:43:26.038Z,2788
2017-03-27T13:44:27.458Z,2788
2017-03-27T13:45:28.682Z,2788
2017-03-27T13:46:29.928Z,2784
2017-03-27T13:47:31.275Z,2788
2017-03-27T13:48:32.557Z,2792
2017-03-27T13:49:33.888Z,2792
2017-03-27T13:50:35.159Z,2792
2017-03-27T13:51:36.413Z,2788
2017-03-27T13:52:37.669Z,2792
2017-03-27T13:53:38.933Z,2788
2017-03-27T13:54:40.158Z,2788
2017-03-27T13:55:41.395Z,2780
2017-03-27T13:56:42.628Z,2780
2017-03-27T13:57:43.895Z,2780
2017-03-27T13:58:45.140Z,2776
2017-03-27T13:59:46.393Z,2772
2017-03-27T14:00:47.738Z,2768
2017-03-27T14:01:49.017Z,2764